sensor_id;sensor_type;location;lat;lon;timestamp;temperature;humidity
3360;DHT22;1693;49.602;11.046;2023-12-20T00:01:03;5.80;99.90
3360;DHT22;1693;49.602;11.046;2023-12-20T00:03:30;5.70;99.90
3360;DHT22;1693;49.602;11.046;2023-12-20T00:05:57;5.90;99.90
3360;DHT22;1693;49.602;11.046;2023-12-20T00:08:24;5.90;99.90
3360;DHT22;1693;49.602;11.046;2023-12-20T00:10:51;5.90;99.90
3360;DHT22;1693;49.602;11.046;2023-12-20T00:13:18;5.80;99.90
3360;DHT22;1693;49.602;11.046;2023-12-20T00:15:45;5.90;99.90
3360;DHT22;1693;49.602;11.046;2023-12-20T00:18:14;5.90;99.90
3360;DHT22;1693;49.602;11.046;2023-12-20T00:20:42;5.70;99.90
3360;DHT22;1693;49.602;11.046;2023-12-20T00:23:09;5.70;99.90
3360;DHT22;1693;49.602;11.046;2023-12-20T00:25:36;5.70;99.90
3360;DHT22;1693;49.602;11.046;2023-12-20T00:28:04;5.70;99.90
3360;DHT22;1693;49.602;11.046;2023-12-20T00:30:31;5.70;99.90
3360;DHT22;1693;49.602;11.046;2023-12-20T00:32:58;5.70;99.90
3360;DHT22;1693;49.602;11.046;2023-12-20T00:35:27;5.70;99.90
3360;DHT22;1693;49.602;11.046;2023-12-20T00:37:54;5.70;99.90
3360;DHT22;1693;49.602;11.046;2023-12-20T00:40:22;5.60;99.90
3360;DHT22;1693;49.602;11.046;2023-12-20T00:42:49;5.60;99.90
3360;DHT22;1693;49.602;11.046;2023-12-20T00:45:16;5.70;99.90
3360;DHT22;1693;49.602;11.046;2023-12-20T00:47:43;5.70;99.90
3360;DHT22;1693;49.602;11.046;2023-12-20T00:50:10;5.60;99.90
3360;DHT22;1693;49.602;11.046;2023-12-20T00:52:39;5.60;99.90
3360;DHT22;1693;49.602;11.046;2023-12-20T00:55:07;5.60;99.90
3360;DHT22;1693;49.602;11.046;2023-12-20T00:57:34;5.60;99.90
3360;DHT22;1693;49.602;11.046;2023-12-20T01:00:03;5.60;99.90
3360;DHT22;1693;49.602;11.046;2023-12-20T01:02:30;5.70;99.90
3360;DHT22;1693;49.602;11.046;2023-12-20T01:04:57;5.60;99.90
3360;DHT22;1693;49.602;11.046;2023-12-20T01:07:24;5.60;99.90
3360;DHT22;1693;49.602;11.046;2023-12-20T01:09:53;5.50;99.90
3360;DHT22;1693;49.602;11.046;2023-12-20T01:12:20;5.50;99.90
3360;DHT22;1693;49.602;11.046;2023-12-20T01:14:47;5.50;99.90
3360;DHT22;1693;49.602;11.046;2023-12-20T01:17:14;5.50;99.90
3360;DHT22;1693;49.602;11.046;2023-12-20T01:19:41;5.50;99.90
3360;DHT22;1693;49.602;11.046;2023-12-20T01:22:08;5.40;99.90
3360;DHT22;1693;49.602;11.046;2023-12-20T01:24:35;5.40;99.90
3360;DHT22;1693;49.602;11.046;2023-12-20T01:27:04;5.40;99.90
3360;DHT22;1693;49.602;11.046;2023-12-20T01:29:31;5.40;99.90
3360;DHT22;1693;49.602;11.046;2023-12-20T01:31:58;5.40;99.90
3360;DHT22;1693;49.602;11.046;2023-12-20T01:34:26;5.30;99.90
3360;DHT22;1693;49.602;11.046;2023-12-20T01:36:53;5.40;99.90
3360;DHT22;1693;49.602;11.046;2023-12-20T01:39:20;5.30;99.90
3360;DHT22;1693;49.602;11.046;2023-12-20T01:41:47;5.30;99.90
3360;DHT22;1693;49.602;11.046;2023-12-20T01:44:16;5.30;99.90
3360;DHT22;1693;49.602;11.046;2023-12-20T01:46:43;5.30;99.90
3360;DHT22;1693;49.602;11.046;2023-12-20T01:49:10;5.30;99.90
3360;DHT22;1693;49.602;11.046;2023-12-20T01:51:38;5.30;99.90
3360;DHT22;1693;49.602;11.046;2023-12-20T01:54:06;5.20;99.90
3360;DHT22;1693;49.602;11.046;2023-12-20T01:56:33;5.30;99.90
3360;DHT22;1693;49.602;11.046;2023-12-20T01:59:01;5.20;99.90
3360;DHT22;1693;49.602;11.046;2023-12-20T02:01:31;5.20;99.90
3360;DHT22;1693;49.602;11.046;2023-12-20T02:03:59;5.10;99.90
3360;DHT22;1693;49.602;11.046;2023-12-20T02:06:40;5.10;99.90
3360;DHT22;1693;49.602;11.046;2023-12-20T02:09:07;5.20;99.90
3360;DHT22;1693;49.602;11.046;2023-12-20T02:11:36;5.10;99.90
3360;DHT22;1693;49.602;11.046;2023-12-20T02:14:02;5.10;99.90
3360;DHT22;1693;49.602;11.046;2023-12-20T02:16:31;5.10;99.90
3360;DHT22;1693;49.602;11.046;2023-12-20T02:18:58;5.10;99.90
3360;DHT22;1693;49.602;11.046;2023-12-20T02:21:32;5.00;99.90
3360;DHT22;1693;49.602;11.046;2023-12-20T02:23:59;5.00;99.90
3360;DHT22;1693;49.602;11.046;2023-12-20T02:26:26;5.00;99.90
3360;DHT22;1693;49.602;11.046;2023-12-20T02:28:54;5.00;99.90
3360;DHT22;1693;49.602;11.046;2023-12-20T02:31:22;5.00;99.90
3360;DHT22;1693;49.602;11.046;2023-12-20T02:33:49;4.90;99.90
3360;DHT22;1693;49.602;11.046;2023-12-20T02:36:16;4.80;99.90
3360;DHT22;1693;49.602;11.046;2023-12-20T02:38:45;4.90;99.90
3360;DHT22;1693;49.602;11.046;2023-12-20T02:41:12;4.80;99.90
3360;DHT22;1693;49.602;11.046;2023-12-20T02:43:41;4.80;99.90
3360;DHT22;1693;49.602;11.046;2023-12-20T02:46:08;4.80;99.90
3360;DHT22;1693;49.602;11.046;2023-12-20T02:48:35;4.80;99.90
3360;DHT22;1693;49.602;11.046;2023-12-20T02:51:03;4.80;99.90
3360;DHT22;1693;49.602;11.046;2023-12-20T02:53:30;4.70;99.90
3360;DHT22;1693;49.602;11.046;2023-12-20T02:55:59;4.70;99.90
3360;DHT22;1693;49.602;11.046;2023-12-20T02:58:27;4.70;99.90
3360;DHT22;1693;49.602;11.046;2023-12-20T03:00:54;4.70;99.90
3360;DHT22;1693;49.602;11.046;2023-12-20T03:03:21;4.70;99.90
3360;DHT22;1693;49.602;11.046;2023-12-20T03:05:49;4.70;99.90
3360;DHT22;1693;49.602;11.046;2023-12-20T03:08:19;4.60;99.90
3360;DHT22;1693;49.602;11.046;2023-12-20T03:10:46;4.60;99.90
3360;DHT22;1693;49.602;11.046;2023-12-20T03:13:14;4.60;99.90
3360;DHT22;1693;49.602;11.046;2023-12-20T03:15:42;4.60;99.90
3360;DHT22;1693;49.602;11.046;2023-12-20T03:18:09;4.60;99.90
3360;DHT22;1693;49.602;11.046;2023-12-20T03:20:36;4.60;99.90
3360;DHT22;1693;49.602;11.046;2023-12-20T03:23:03;4.50;99.90
3360;DHT22;1693;49.602;11.046;2023-12-20T03:25:30;4.50;99.90
3360;DHT22;1693;49.602;11.046;2023-12-20T03:27:58;4.60;99.90
3360;DHT22;1693;49.602;11.046;2023-12-20T03:30:27;4.50;99.90
3360;DHT22;1693;49.602;11.046;2023-12-20T03:32:54;4.50;99.90
3360;DHT22;1693;49.602;11.046;2023-12-20T03:35:21;4.50;99.90
3360;DHT22;1693;49.602;11.046;2023-12-20T03:37:48;4.50;99.90
3360;DHT22;1693;49.602;11.046;2023-12-20T03:40:16;4.40;99.90
3360;DHT22;1693;49.602;11.046;2023-12-20T03:42:43;4.30;99.90
3360;DHT22;1693;49.602;11.046;2023-12-20T03:45:11;4.40;99.90
3360;DHT22;1693;49.602;11.046;2023-12-20T03:47:40;4.40;99.90
3360;DHT22;1693;49.602;11.046;2023-12-20T03:50:08;4.50;99.90
3360;DHT22;1693;49.602;11.046;2023-12-20T03:52:36;4.40;99.90
3360;DHT22;1693;49.602;11.046;2023-12-20T03:55:04;4.40;99.90
3360;DHT22;1693;49.602;11.046;2023-12-20T03:57:31;4.40;99.90
3360;DHT22;1693;49.602;11.046;2023-12-20T03:59:58;4.40;99.90
3360;DHT22;1693;49.602;11.046;2023-12-20T04:02:25;4.30;99.90
3360;DHT22;1693;49.602;11.046;2023-12-20T04:04:53;4.40;99.90
3360;DHT22;1693;49.602;11.046;2023-12-20T04:07:21;4.50;99.90
3360;DHT22;1693;49.602;11.046;2023-12-20T04:09:48;4.50;99.90
3360;DHT22;1693;49.602;11.046;2023-12-20T04:12:15;4.40;99.90
3360;DHT22;1693;49.602;11.046;2023-12-20T04:14:42;4.40;99.90
3360;DHT22;1693;49.602;11.046;2023-12-20T04:17:09;4.50;99.90
3360;DHT22;1693;49.602;11.046;2023-12-20T04:19:37;4.40;99.90
3360;DHT22;1693;49.602;11.046;2023-12-20T04:22:05;4.30;99.90
3360;DHT22;1693;49.602;11.046;2023-12-20T04:24:32;4.30;99.90
3360;DHT22;1693;49.602;11.046;2023-12-20T04:27:00;4.40;99.90
3360;DHT22;1693;49.602;11.046;2023-12-20T04:29:27;4.30;99.90
3360;DHT22;1693;49.602;11.046;2023-12-20T04:31:54;4.30;99.90
3360;DHT22;1693;49.602;11.046;2023-12-20T04:34:22;4.30;99.90
3360;DHT22;1693;49.602;11.046;2023-12-20T04:36:50;4.40;99.90
3360;DHT22;1693;49.602;11.046;2023-12-20T04:39:18;4.40;99.90
3360;DHT22;1693;49.602;11.046;2023-12-20T04:41:45;4.40;99.90
3360;DHT22;1693;49.602;11.046;2023-12-20T04:44:13;4.40;99.90
3360;DHT22;1693;49.602;11.046;2023-12-20T04:46:40;4.40;99.90
3360;DHT22;1693;49.602;11.046;2023-12-20T04:49:08;4.40;99.90
3360;DHT22;1693;49.602;11.046;2023-12-20T04:51:35;4.40;99.90
3360;DHT22;1693;49.602;11.046;2023-12-20T04:54:04;4.30;99.90
3360;DHT22;1693;49.602;11.046;2023-12-20T04:56:32;4.30;99.90
3360;DHT22;1693;49.602;11.046;2023-12-20T04:58:59;4.20;99.90
3360;DHT22;1693;49.602;11.046;2023-12-20T05:01:27;4.20;99.90
3360;DHT22;1693;49.602;11.046;2023-12-20T05:03:54;4.20;99.90
3360;DHT22;1693;49.602;11.046;2023-12-20T05:06:22;4.30;99.90
3360;DHT22;1693;49.602;11.046;2023-12-20T05:08:49;4.30;99.90
3360;DHT22;1693;49.602;11.046;2023-12-20T05:11:16;4.30;99.90
3360;DHT22;1693;49.602;11.046;2023-12-20T05:13:44;4.30;99.90
3360;DHT22;1693;49.602;11.046;2023-12-20T05:16:12;4.40;99.90
3360;DHT22;1693;49.602;11.046;2023-12-20T05:18:39;4.40;99.90
3360;DHT22;1693;49.602;11.046;2023-12-20T05:21:07;4.30;99.90
3360;DHT22;1693;49.602;11.046;2023-12-20T05:23:34;4.30;99.90
3360;DHT22;1693;49.602;11.046;2023-12-20T05:26:03;4.30;99.90
3360;DHT22;1693;49.602;11.046;2023-12-20T05:28:30;4.40;99.90
3360;DHT22;1693;49.602;11.046;2023-12-20T05:30:58;4.40;99.90
3360;DHT22;1693;49.602;11.046;2023-12-20T05:33:25;4.30;99.90
3360;DHT22;1693;49.602;11.046;2023-12-20T05:35:52;4.30;99.90
3360;DHT22;1693;49.602;11.046;2023-12-20T05:38:21;4.40;99.90
3360;DHT22;1693;49.602;11.046;2023-12-20T05:40:51;4.40;99.90
3360;DHT22;1693;49.602;11.046;2023-12-20T05:43:20;4.40;99.90
3360;DHT22;1693;49.602;11.046;2023-12-20T05:45:47;4.50;99.90
3360;DHT22;1693;49.602;11.046;2023-12-20T05:48:16;4.50;99.90
3360;DHT22;1693;49.602;11.046;2023-12-20T05:50:43;4.50;99.90
3360;DHT22;1693;49.602;11.046;2023-12-20T05:53:10;4.50;99.90
3360;DHT22;1693;49.602;11.046;2023-12-20T05:55:37;4.50;99.90
3360;DHT22;1693;49.602;11.046;2023-12-20T05:58:04;4.50;99.90
3360;DHT22;1693;49.602;11.046;2023-12-20T06:00:31;4.50;99.90
3360;DHT22;1693;49.602;11.046;2023-12-20T06:02:59;4.60;99.90
3360;DHT22;1693;49.602;11.046;2023-12-20T06:05:27;4.50;99.90
3360;DHT22;1693;49.602;11.046;2023-12-20T06:07:54;4.50;99.90
3360;DHT22;1693;49.602;11.046;2023-12-20T06:10:23;4.60;99.90
3360;DHT22;1693;49.602;11.046;2023-12-20T06:12:50;4.60;99.90
3360;DHT22;1693;49.602;11.046;2023-12-20T06:15:17;4.50;99.90
3360;DHT22;1693;49.602;11.046;2023-12-20T06:17:45;4.50;99.90
3360;DHT22;1693;49.602;11.046;2023-12-20T06:20:13;4.50;99.90
3360;DHT22;1693;49.602;11.046;2023-12-20T06:22:41;4.60;99.90
3360;DHT22;1693;49.602;11.046;2023-12-20T06:25:09;4.60;99.90
3360;DHT22;1693;49.602;11.046;2023-12-20T06:27:36;4.50;99.90
3360;DHT22;1693;49.602;11.046;2023-12-20T06:30:04;4.60;99.90
3360;DHT22;1693;49.602;11.046;2023-12-20T06:32:31;4.60;99.90
3360;DHT22;1693;49.602;11.046;2023-12-20T06:35:00;4.60;99.90
3360;DHT22;1693;49.602;11.046;2023-12-20T06:37:28;4.60;99.90
3360;DHT22;1693;49.602;11.046;2023-12-20T06:39:56;4.60;99.90
3360;DHT22;1693;49.602;11.046;2023-12-20T06:42:23;4.60;99.90
3360;DHT22;1693;49.602;11.046;2023-12-20T06:44:50;4.70;99.90
3360;DHT22;1693;49.602;11.046;2023-12-20T06:47:18;4.60;99.90
3360;DHT22;1693;49.602;11.046;2023-12-20T06:49:45;4.70;99.90
3360;DHT22;1693;49.602;11.046;2023-12-20T06:52:12;4.70;99.90
3360;DHT22;1693;49.602;11.046;2023-12-20T06:54:39;4.60;99.90
3360;DHT22;1693;49.602;11.046;2023-12-20T06:57:08;4.60;99.90
3360;DHT22;1693;49.602;11.046;2023-12-20T06:59:38;4.70;99.90
3360;DHT22;1693;49.602;11.046;2023-12-20T07:02:06;4.80;99.90
3360;DHT22;1693;49.602;11.046;2023-12-20T07:04:33;4.80;99.90
3360;DHT22;1693;49.602;11.046;2023-12-20T07:07:02;4.70;99.90
3360;DHT22;1693;49.602;11.046;2023-12-20T07:09:29;4.70;99.90
3360;DHT22;1693;49.602;11.046;2023-12-20T07:11:56;4.60;99.90
3360;DHT22;1693;49.602;11.046;2023-12-20T07:14:25;4.70;99.90
3360;DHT22;1693;49.602;11.046;2023-12-20T07:16:53;4.80;99.90
3360;DHT22;1693;49.602;11.046;2023-12-20T07:19:20;4.70;99.90
3360;DHT22;1693;49.602;11.046;2023-12-20T07:21:47;4.80;99.90
3360;DHT22;1693;49.602;11.046;2023-12-20T07:24:14;4.70;99.90
3360;DHT22;1693;49.602;11.046;2023-12-20T07:26:41;4.80;99.90
3360;DHT22;1693;49.602;11.046;2023-12-20T07:29:09;4.80;99.90
3360;DHT22;1693;49.602;11.046;2023-12-20T07:31:37;4.80;99.90
3360;DHT22;1693;49.602;11.046;2023-12-20T07:34:04;4.80;99.90
3360;DHT22;1693;49.602;11.046;2023-12-20T07:36:32;4.80;99.90
3360;DHT22;1693;49.602;11.046;2023-12-20T07:38:59;4.80;99.90
3360;DHT22;1693;49.602;11.046;2023-12-20T07:41:26;4.90;99.90
3360;DHT22;1693;49.602;11.046;2023-12-20T07:43:53;4.90;99.90
3360;DHT22;1693;49.602;11.046;2023-12-20T07:46:22;5.00;99.90
3360;DHT22;1693;49.602;11.046;2023-12-20T07:48:51;5.00;99.90
3360;DHT22;1693;49.602;11.046;2023-12-20T07:51:18;5.10;99.90
3360;DHT22;1693;49.602;11.046;2023-12-20T07:53:47;5.00;99.90
3360;DHT22;1693;49.602;11.046;2023-12-20T07:56:14;5.10;99.90
3360;DHT22;1693;49.602;11.046;2023-12-20T07:58:42;5.10;99.90
3360;DHT22;1693;49.602;11.046;2023-12-20T08:01:18;5.10;99.90
3360;DHT22;1693;49.602;11.046;2023-12-20T08:03:45;5.10;99.90
3360;DHT22;1693;49.602;11.046;2023-12-20T08:06:14;5.10;99.90
3360;DHT22;1693;49.602;11.046;2023-12-20T08:08:42;5.10;99.90
3360;DHT22;1693;49.602;11.046;2023-12-20T08:11:10;5.20;99.90
3360;DHT22;1693;49.602;11.046;2023-12-20T08:13:37;5.20;99.90
3360;DHT22;1693;49.602;11.046;2023-12-20T08:16:05;5.30;99.90
3360;DHT22;1693;49.602;11.046;2023-12-20T08:18:32;5.30;99.90
3360;DHT22;1693;49.602;11.046;2023-12-20T08:21:00;5.40;99.90
3360;DHT22;1693;49.602;11.046;2023-12-20T08:23:28;5.40;99.90
3360;DHT22;1693;49.602;11.046;2023-12-20T08:25:55;5.40;99.90
3360;DHT22;1693;49.602;11.046;2023-12-20T08:28:23;5.30;99.90
3360;DHT22;1693;49.602;11.046;2023-12-20T08:30:50;5.30;99.90
3360;DHT22;1693;49.602;11.046;2023-12-20T08:33:19;5.30;99.90
3360;DHT22;1693;49.602;11.046;2023-12-20T08:35:46;5.30;99.90
3360;DHT22;1693;49.602;11.046;2023-12-20T08:38:13;5.30;99.90
3360;DHT22;1693;49.602;11.046;2023-12-20T08:40:42;5.20;99.90
3360;DHT22;1693;49.602;11.046;2023-12-20T08:43:09;5.20;99.90
3360;DHT22;1693;49.602;11.046;2023-12-20T08:45:36;5.20;99.90
3360;DHT22;1693;49.602;11.046;2023-12-20T08:48:07;5.10;99.90
3360;DHT22;1693;49.602;11.046;2023-12-20T08:50:34;5.10;99.90
3360;DHT22;1693;49.602;11.046;2023-12-20T08:53:02;5.00;99.90
3360;DHT22;1693;49.602;11.046;2023-12-20T08:55:29;5.00;99.90
3360;DHT22;1693;49.602;11.046;2023-12-20T08:57:59;5.00;99.90
3360;DHT22;1693;49.602;11.046;2023-12-20T09:00:26;5.10;99.90
3360;DHT22;1693;49.602;11.046;2023-12-20T09:03:07;5.10;99.90
3360;DHT22;1693;49.602;11.046;2023-12-20T09:05:38;5.00;99.90
3360;DHT22;1693;49.602;11.046;2023-12-20T09:08:06;5.00;99.90
3360;DHT22;1693;49.602;11.046;2023-12-20T09:10:36;5.00;99.90
3360;DHT22;1693;49.602;11.046;2023-12-20T09:13:08;5.00;99.90
3360;DHT22;1693;49.602;11.046;2023-12-20T09:15:35;5.00;99.90
3360;DHT22;1693;49.602;11.046;2023-12-20T09:18:03;5.00;99.90
3360;DHT22;1693;49.602;11.046;2023-12-20T09:20:31;5.10;99.90
3360;DHT22;1693;49.602;11.046;2023-12-20T09:22:58;5.20;99.90
3360;DHT22;1693;49.602;11.046;2023-12-20T09:25:26;5.20;99.90
3360;DHT22;1693;49.602;11.046;2023-12-20T09:27:54;5.30;99.90
3360;DHT22;1693;49.602;11.046;2023-12-20T09:30:27;5.30;99.90
3360;DHT22;1693;49.602;11.046;2023-12-20T09:32:59;5.40;99.90
3360;DHT22;1693;49.602;11.046;2023-12-20T09:35:29;6.10;99.90
3360;DHT22;1693;49.602;11.046;2023-12-20T09:37:56;6.20;99.90
3360;DHT22;1693;49.602;11.046;2023-12-20T09:40:26;6.70;99.90
3360;DHT22;1693;49.602;11.046;2023-12-20T09:42:57;7.20;99.90
3360;DHT22;1693;49.602;11.046;2023-12-20T09:45:31;7.40;99.90
3360;DHT22;1693;49.602;11.046;2023-12-20T09:47:58;7.60;99.90
3360;DHT22;1693;49.602;11.046;2023-12-20T09:50:26;7.80;99.90
3360;DHT22;1693;49.602;11.046;2023-12-20T09:52:53;8.10;99.90
3360;DHT22;1693;49.602;11.046;2023-12-20T09:55:22;8.00;99.90
3360;DHT22;1693;49.602;11.046;2023-12-20T09:57:49;7.90;99.90
3360;DHT22;1693;49.602;11.046;2023-12-20T10:00:17;7.50;99.90
3360;DHT22;1693;49.602;11.046;2023-12-20T10:02:50;7.40;99.90
3360;DHT22;1693;49.602;11.046;2023-12-20T10:05:18;7.40;99.90
3360;DHT22;1693;49.602;11.046;2023-12-20T10:07:46;7.20;99.90
3360;DHT22;1693;49.602;11.046;2023-12-20T10:10:13;6.80;99.90
3360;DHT22;1693;49.602;11.046;2023-12-20T10:12:40;6.70;99.90
3360;DHT22;1693;49.602;11.046;2023-12-20T10:15:09;6.40;99.90
3360;DHT22;1693;49.602;11.046;2023-12-20T10:17:37;6.30;99.90
3360;DHT22;1693;49.602;11.046;2023-12-20T10:20:07;6.30;99.90
3360;DHT22;1693;49.602;11.046;2023-12-20T10:22:36;6.40;99.90
3360;DHT22;1693;49.602;11.046;2023-12-20T10:25:05;6.20;99.90
3360;DHT22;1693;49.602;11.046;2023-12-20T10:27:32;6.20;99.90
3360;DHT22;1693;49.602;11.046;2023-12-20T10:29:59;6.10;99.90
3360;DHT22;1693;49.602;11.046;2023-12-20T10:32:27;6.10;99.90
3360;DHT22;1693;49.602;11.046;2023-12-20T10:34:55;6.10;99.90
3360;DHT22;1693;49.602;11.046;2023-12-20T10:37:23;6.00;99.90
3360;DHT22;1693;49.602;11.046;2023-12-20T10:39:52;6.10;99.90
3360;DHT22;1693;49.602;11.046;2023-12-20T10:42:22;6.00;99.90
3360;DHT22;1693;49.602;11.046;2023-12-20T10:44:49;6.10;99.90
3360;DHT22;1693;49.602;11.046;2023-12-20T10:47:21;6.20;99.90
3360;DHT22;1693;49.602;11.046;2023-12-20T10:49:55;6.20;99.90
3360;DHT22;1693;49.602;11.046;2023-12-20T10:52:29;6.20;99.90
3360;DHT22;1693;49.602;11.046;2023-12-20T10:54:58;6.30;99.90
3360;DHT22;1693;49.602;11.046;2023-12-20T10:57:27;6.40;99.90
3360;DHT22;1693;49.602;11.046;2023-12-20T10:59:56;6.50;99.90
3360;DHT22;1693;49.602;11.046;2023-12-20T11:02:32;6.60;99.90
3360;DHT22;1693;49.602;11.046;2023-12-20T11:05:06;6.80;99.90
3360;DHT22;1693;49.602;11.046;2023-12-20T11:07:44;6.90;99.90
3360;DHT22;1693;49.602;11.046;2023-12-20T11:10:19;6.90;99.90
3360;DHT22;1693;49.602;11.046;2023-12-20T11:12:49;6.80;99.90
3360;DHT22;1693;49.602;11.046;2023-12-20T11:15:19;6.80;99.90
3360;DHT22;1693;49.602;11.046;2023-12-20T11:17:54;6.70;99.90
3360;DHT22;1693;49.602;11.046;2023-12-20T11:20:23;6.60;99.90
3360;DHT22;1693;49.602;11.046;2023-12-20T11:22:55;6.60;99.90
3360;DHT22;1693;49.602;11.046;2023-12-20T11:25:22;6.60;99.90
3360;DHT22;1693;49.602;11.046;2023-12-20T11:28:08;6.60;99.90
3360;DHT22;1693;49.602;11.046;2023-12-20T11:30:42;6.60;99.90
3360;DHT22;1693;49.602;11.046;2023-12-20T11:33:10;6.60;99.90
3360;DHT22;1693;49.602;11.046;2023-12-20T11:35:42;6.50;99.90
3360;DHT22;1693;49.602;11.046;2023-12-20T11:38:13;6.30;99.90
3360;DHT22;1693;49.602;11.046;2023-12-20T11:40:41;6.40;99.90
3360;DHT22;1693;49.602;11.046;2023-12-20T11:43:09;6.30;99.90
3360;DHT22;1693;49.602;11.046;2023-12-20T11:45:36;6.40;99.90
3360;DHT22;1693;49.602;11.046;2023-12-20T11:48:05;6.40;99.90
3360;DHT22;1693;49.602;11.046;2023-12-20T11:50:33;6.40;99.90
3360;DHT22;1693;49.602;11.046;2023-12-20T11:53:01;6.30;99.90
3360;DHT22;1693;49.602;11.046;2023-12-20T11:55:29;6.20;99.90
3360;DHT22;1693;49.602;11.046;2023-12-20T11:57:58;6.30;99.90
3360;DHT22;1693;49.602;11.046;2023-12-20T12:00:25;6.50;99.90
3360;DHT22;1693;49.602;11.046;2023-12-20T12:02:59;6.40;99.90
3360;DHT22;1693;49.602;11.046;2023-12-20T12:05:30;6.40;99.90
3360;DHT22;1693;49.602;11.046;2023-12-20T12:07:58;6.30;99.90
3360;DHT22;1693;49.602;11.046;2023-12-20T12:10:30;6.20;99.90
3360;DHT22;1693;49.602;11.046;2023-12-20T12:12:57;6.20;99.90
3360;DHT22;1693;49.602;11.046;2023-12-20T12:15:25;6.20;99.90
3360;DHT22;1693;49.602;11.046;2023-12-20T12:17:56;6.20;99.90
3360;DHT22;1693;49.602;11.046;2023-12-20T12:20:23;6.30;99.90
3360;DHT22;1693;49.602;11.046;2023-12-20T12:23:22;6.40;99.90
3360;DHT22;1693;49.602;11.046;2023-12-20T12:25:51;6.30;99.90
3360;DHT22;1693;49.602;11.046;2023-12-20T12:28:19;6.30;99.90
3360;DHT22;1693;49.602;11.046;2023-12-20T12:30:57;6.30;99.90
3360;DHT22;1693;49.602;11.046;2023-12-20T12:33:25;6.40;99.90
3360;DHT22;1693;49.602;11.046;2023-12-20T12:35:52;6.40;99.90
3360;DHT22;1693;49.602;11.046;2023-12-20T12:38:25;6.40;99.90
3360;DHT22;1693;49.602;11.046;2023-12-20T12:40:56;6.40;99.90
3360;DHT22;1693;49.602;11.046;2023-12-20T12:43:24;6.40;99.90
3360;DHT22;1693;49.602;11.046;2023-12-20T12:45:51;6.30;99.90
3360;DHT22;1693;49.602;11.046;2023-12-20T12:48:19;6.30;99.90
3360;DHT22;1693;49.602;11.046;2023-12-20T12:50:46;6.30;99.90
3360;DHT22;1693;49.602;11.046;2023-12-20T12:53:13;6.30;99.90
3360;DHT22;1693;49.602;11.046;2023-12-20T12:55:40;6.40;99.90
3360;DHT22;1693;49.602;11.046;2023-12-20T12:58:09;6.50;99.90
3360;DHT22;1693;49.602;11.046;2023-12-20T13:00:36;6.40;99.90
3360;DHT22;1693;49.602;11.046;2023-12-20T13:03:03;6.40;99.90
3360;DHT22;1693;49.602;11.046;2023-12-20T13:05:31;6.30;99.90
3360;DHT22;1693;49.602;11.046;2023-12-20T13:07:58;6.30;99.90
3360;DHT22;1693;49.602;11.046;2023-12-20T13:10:25;6.30;99.90
3360;DHT22;1693;49.602;11.046;2023-12-20T13:12:52;6.40;99.90
3360;DHT22;1693;49.602;11.046;2023-12-20T13:15:20;6.40;99.90
3360;DHT22;1693;49.602;11.046;2023-12-20T13:17:47;6.30;99.90
3360;DHT22;1693;49.602;11.046;2023-12-20T13:20:15;6.00;99.90
3360;DHT22;1693;49.602;11.046;2023-12-20T13:25:09;5.60;99.90
3360;DHT22;1693;49.602;11.046;2023-12-20T13:27:36;5.40;99.90
3360;DHT22;1693;49.602;11.046;2023-12-20T13:30:04;5.50;99.90
3360;DHT22;1693;49.602;11.046;2023-12-20T13:32:33;5.40;99.90
3360;DHT22;1693;49.602;11.046;2023-12-20T13:35:01;5.40;99.90
3360;DHT22;1693;49.602;11.046;2023-12-20T13:37:29;5.40;99.90
3360;DHT22;1693;49.602;11.046;2023-12-20T13:39:57;5.40;99.90
3360;DHT22;1693;49.602;11.046;2023-12-20T13:42:25;5.40;99.90
3360;DHT22;1693;49.602;11.046;2023-12-20T13:44:54;5.40;99.90
3360;DHT22;1693;49.602;11.046;2023-12-20T13:47:22;5.50;99.90
3360;DHT22;1693;49.602;11.046;2023-12-20T13:49:50;5.50;99.90
3360;DHT22;1693;49.602;11.046;2023-12-20T13:52:17;5.50;99.90
3360;DHT22;1693;49.602;11.046;2023-12-20T13:54:45;5.50;99.90
3360;DHT22;1693;49.602;11.046;2023-12-20T13:57:12;5.40;99.90
3360;DHT22;1693;49.602;11.046;2023-12-20T13:59:39;5.50;99.90
3360;DHT22;1693;49.602;11.046;2023-12-20T14:02:06;5.50;99.90
3360;DHT22;1693;49.602;11.046;2023-12-20T14:04:33;5.60;99.90
3360;DHT22;1693;49.602;11.046;2023-12-20T14:07:02;5.60;99.90
3360;DHT22;1693;49.602;11.046;2023-12-20T14:09:31;5.70;99.90
3360;DHT22;1693;49.602;11.046;2023-12-20T14:11:58;5.70;99.90
3360;DHT22;1693;49.602;11.046;2023-12-20T14:14:25;5.80;99.90
3360;DHT22;1693;49.602;11.046;2023-12-20T14:16:52;5.80;99.90
3360;DHT22;1693;49.602;11.046;2023-12-20T14:19:20;5.70;99.90
3360;DHT22;1693;49.602;11.046;2023-12-20T14:21:59;5.70;99.90
3360;DHT22;1693;49.602;11.046;2023-12-20T14:24:34;5.60;99.90
3360;DHT22;1693;49.602;11.046;2023-12-20T14:27:02;5.70;99.90
3360;DHT22;1693;49.602;11.046;2023-12-20T14:29:29;5.70;99.90
3360;DHT22;1693;49.602;11.046;2023-12-20T14:31:56;5.70;99.90
3360;DHT22;1693;49.602;11.046;2023-12-20T14:34:23;5.70;99.90
3360;DHT22;1693;49.602;11.046;2023-12-20T14:36:50;5.80;99.90
3360;DHT22;1693;49.602;11.046;2023-12-20T14:39:18;5.80;99.90
3360;DHT22;1693;49.602;11.046;2023-12-20T14:41:47;5.90;99.90
3360;DHT22;1693;49.602;11.046;2023-12-20T14:44:14;5.80;99.90
3360;DHT22;1693;49.602;11.046;2023-12-20T14:46:42;5.80;99.90
3360;DHT22;1693;49.602;11.046;2023-12-20T14:49:09;5.70;99.90
3360;DHT22;1693;49.602;11.046;2023-12-20T14:51:36;5.70;99.90
3360;DHT22;1693;49.602;11.046;2023-12-20T14:54:04;5.70;99.90
3360;DHT22;1693;49.602;11.046;2023-12-20T14:56:33;5.70;99.90
3360;DHT22;1693;49.602;11.046;2023-12-20T14:59:02;5.70;99.90
3360;DHT22;1693;49.602;11.046;2023-12-20T15:01:29;5.70;99.90
3360;DHT22;1693;49.602;11.046;2023-12-20T15:03:56;5.70;99.90
3360;DHT22;1693;49.602;11.046;2023-12-20T15:06:23;5.60;99.90
3360;DHT22;1693;49.602;11.046;2023-12-20T15:08:51;5.40;99.90
3360;DHT22;1693;49.602;11.046;2023-12-20T15:11:18;5.40;99.90
3360;DHT22;1693;49.602;11.046;2023-12-20T15:13:45;5.50;99.90
3360;DHT22;1693;49.602;11.046;2023-12-20T15:16:22;5.40;99.90
3360;DHT22;1693;49.602;11.046;2023-12-20T15:18:49;5.40;99.90
3360;DHT22;1693;49.602;11.046;2023-12-20T15:21:16;5.40;99.90
3360;DHT22;1693;49.602;11.046;2023-12-20T15:23:43;5.30;99.90
3360;DHT22;1693;49.602;11.046;2023-12-20T15:26:18;5.30;99.90
3360;DHT22;1693;49.602;11.046;2023-12-20T15:28:46;5.30;99.90
3360;DHT22;1693;49.602;11.046;2023-12-20T15:31:13;5.40;99.90
3360;DHT22;1693;49.602;11.046;2023-12-20T15:33:42;5.40;99.90
3360;DHT22;1693;49.602;11.046;2023-12-20T15:36:09;5.40;99.90
3360;DHT22;1693;49.602;11.046;2023-12-20T15:38:36;5.40;99.90
3360;DHT22;1693;49.602;11.046;2023-12-20T15:41:04;5.40;99.90
3360;DHT22;1693;49.602;11.046;2023-12-20T15:43:31;5.50;99.90
3360;DHT22;1693;49.602;11.046;2023-12-20T15:45:58;5.30;99.90
3360;DHT22;1693;49.602;11.046;2023-12-20T15:48:25;5.40;99.90
3360;DHT22;1693;49.602;11.046;2023-12-20T15:50:57;5.40;99.90
3360;DHT22;1693;49.602;11.046;2023-12-20T15:53:24;5.40;99.90
3360;DHT22;1693;49.602;11.046;2023-12-20T15:55:52;5.40;99.90
3360;DHT22;1693;49.602;11.046;2023-12-20T15:58:22;5.40;99.90
3360;DHT22;1693;49.602;11.046;2023-12-20T16:01:04;5.40;99.90
3360;DHT22;1693;49.602;11.046;2023-12-20T16:03:47;5.30;99.90
3360;DHT22;1693;49.602;11.046;2023-12-20T16:06:16;5.30;99.90
3360;DHT22;1693;49.602;11.046;2023-12-20T16:08:43;5.30;99.90
3360;DHT22;1693;49.602;11.046;2023-12-20T16:11:11;5.40;99.90